Terminal Aerodrome Forecast
Issued by NWS

Home | Current Version | Previous Version | Text Only | Print | Product List | Glossary On
Versions: 1 2 3 4 5 6 7 8 9 10 11 12 13 14 15 16
000
FTUS45 KRIW 031700
TAFCPR
TAF
KCPR 031727Z 0318/0418 03012KT 5SM -SN SCT020 BKN035
     FM040300 24006KT P6SM -SN SCT030 BKN050
     FM041200 24009KT P6SM SCT050
     FM041700 23012G18KT P6SM SKC=

USA.gov is the U.S. government's official web portal to all federal, state and local government web resources and services.